sensor_id;sensor_type;location;lat;lon;timestamp;P1;durP1;ratioP1;P2;durP2;ratioP2
48526;SDS011;34317;51.660;5.824;2024-01-25T00:02:18;27.90;;;5.47;;
48526;SDS011;34317;51.660;5.824;2024-01-25T00:04:45;36.30;;;5.80;;
48526;SDS011;34317;51.660;5.824;2024-01-25T00:07:12;30.13;;;4.95;;
48526;SDS011;34317;51.660;5.824;2024-01-25T00:09:40;31.48;;;5.72;;
48526;SDS011;34317;51.660;5.824;2024-01-25T00:12:07;27.98;;;5.30;;
48526;SDS011;34317;51.660;5.824;2024-01-25T00:14:34;28.10;;;5.18;;
48526;SDS011;34317;51.660;5.824;2024-01-25T00:17:01;37.20;;;4.82;;
48526;SDS011;34317;51.660;5.824;2024-01-25T00:19:29;28.90;;;5.10;;
48526;SDS011;34317;51.660;5.824;2024-01-25T00:21:56;24.75;;;4.40;;
48526;SDS011;34317;51.660;5.824;2024-01-25T00:24:25;26.77;;;4.93;;
48526;SDS011;34317;51.660;5.824;2024-01-25T00:26:53;24.27;;;4.72;;
48526;SDS011;34317;51.660;5.824;2024-01-25T00:29:20;27.70;;;5.30;;
48526;SDS011;34317;51.660;5.824;2024-01-25T00:31:48;31.50;;;4.78;;
48526;SDS011;34317;51.660;5.824;2024-01-25T00:34:15;26.25;;;4.82;;
48526;SDS011;34317;51.660;5.824;2024-01-25T00:36:43;31.45;;;4.70;;
48526;SDS011;34317;51.660;5.824;2024-01-25T00:39:11;25.75;;;5.30;;
48526;SDS011;34317;51.660;5.824;2024-01-25T00:41:38;29.65;;;4.65;;
48526;SDS011;34317;51.660;5.824;2024-01-25T00:44:07;32.60;;;5.28;;
48526;SDS011;34317;51.660;5.824;2024-01-25T00:46:34;26.13;;;4.78;;
48526;SDS011;34317;51.660;5.824;2024-01-25T00:49:02;28.48;;;4.65;;
48526;SDS011;34317;51.660;5.824;2024-01-25T00:51:29;29.83;;;4.75;;
48526;SDS011;34317;51.660;5.824;2024-01-25T00:53:57;25.23;;;4.57;;
48526;SDS011;34317;51.660;5.824;2024-01-25T00:56:24;25.77;;;4.72;;
48526;SDS011;34317;51.660;5.824;2024-01-25T00:58:51;23.13;;;4.22;;
48526;SDS011;34317;51.660;5.824;2024-01-25T01:01:19;31.48;;;5.10;;
48526;SDS011;34317;51.660;5.824;2024-01-25T01:03:49;25.83;;;4.82;;
48526;SDS011;34317;51.660;5.824;2024-01-25T01:06:20;22.85;;;4.70;;
48526;SDS011;34317;51.660;5.824;2024-01-25T01:08:47;22.30;;;4.47;;
48526;SDS011;34317;51.660;5.824;2024-01-25T01:11:15;32.40;;;4.70;;
48526;SDS011;34317;51.660;5.824;2024-01-25T01:13:42;25.60;;;5.07;;
48526;SDS011;34317;51.660;5.824;2024-01-25T01:16:09;27.50;;;4.93;;
48526;SDS011;34317;51.660;5.824;2024-01-25T01:18:37;25.95;;;4.88;;
48526;SDS011;34317;51.660;5.824;2024-01-25T01:21:05;31.02;;;4.20;;
48526;SDS011;34317;51.660;5.824;2024-01-25T01:23:32;30.38;;;4.60;;
48526;SDS011;34317;51.660;5.824;2024-01-25T01:26:00;26.55;;;4.53;;
48526;SDS011;34317;51.660;5.824;2024-01-25T01:28:27;20.42;;;3.95;;
48526;SDS011;34317;51.660;5.824;2024-01-25T01:30:54;24.75;;;5.05;;
48526;SDS011;34317;51.660;5.824;2024-01-25T01:33:21;28.42;;;4.38;;
48526;SDS011;34317;51.660;5.824;2024-01-25T01:35:49;29.73;;;4.38;;
48526;SDS011;34317;51.660;5.824;2024-01-25T01:38:16;24.13;;;4.38;;
48526;SDS011;34317;51.660;5.824;2024-01-25T01:40:44;24.38;;;4.90;;
48526;SDS011;34317;51.660;5.824;2024-01-25T01:43:18;22.95;;;4.15;;
48526;SDS011;34317;51.660;5.824;2024-01-25T01:45:47;21.20;;;3.80;;
48526;SDS011;34317;51.660;5.824;2024-01-25T01:48:14;30.83;;;5.05;;
48526;SDS011;34317;51.660;5.824;2024-01-25T01:50:43;29.08;;;5.20;;
48526;SDS011;34317;51.660;5.824;2024-01-25T01:53:12;29.63;;;4.38;;
48526;SDS011;34317;51.660;5.824;2024-01-25T01:55:39;26.30;;;4.72;;
48526;SDS011;34317;51.660;5.824;2024-01-25T01:58:08;28.85;;;4.28;;
48526;SDS011;34317;51.660;5.824;2024-01-25T02:00:35;31.52;;;4.72;;
48526;SDS011;34317;51.660;5.824;2024-01-25T02:03:04;27.73;;;4.32;;
48526;SDS011;34317;51.660;5.824;2024-01-25T02:05:33;28.67;;;4.70;;
48526;SDS011;34317;51.660;5.824;2024-01-25T02:08:00;21.60;;;3.58;;
48526;SDS011;34317;51.660;5.824;2024-01-25T02:10:27;26.45;;;4.28;;
48526;SDS011;34317;51.660;5.824;2024-01-25T02:12:54;22.20;;;4.47;;
48526;SDS011;34317;51.660;5.824;2024-01-25T02:15:21;32.35;;;4.78;;
48526;SDS011;34317;51.660;5.824;2024-01-25T02:17:49;21.63;;;4.35;;
48526;SDS011;34317;51.660;5.824;2024-01-25T02:20:17;26.20;;;4.28;;
48526;SDS011;34317;51.660;5.824;2024-01-25T02:22:45;30.75;;;4.85;;
48526;SDS011;34317;51.660;5.824;2024-01-25T02:25:12;26.90;;;5.13;;
48526;SDS011;34317;51.660;5.824;2024-01-25T02:27:40;37.45;;;5.05;;
48526;SDS011;34317;51.660;5.824;2024-01-25T02:30:08;23.10;;;4.38;;
48526;SDS011;34317;51.660;5.824;2024-01-25T02:32:35;26.20;;;4.47;;
48526;SDS011;34317;51.660;5.824;2024-01-25T02:35:03;24.80;;;4.53;;
48526;SDS011;34317;51.660;5.824;2024-01-25T02:37:30;31.50;;;5.00;;
48526;SDS011;34317;51.660;5.824;2024-01-25T02:39:58;30.55;;;4.68;;
48526;SDS011;34317;51.660;5.824;2024-01-25T02:42:25;25.25;;;4.32;;
48526;SDS011;34317;51.660;5.824;2024-01-25T02:44:52;25.83;;;4.53;;
48526;SDS011;34317;51.660;5.824;2024-01-25T02:47:19;28.23;;;4.45;;
48526;SDS011;34317;51.660;5.824;2024-01-25T02:49:47;26.92;;;4.70;;
48526;SDS011;34317;51.660;5.824;2024-01-25T02:52:14;29.20;;;4.68;;
48526;SDS011;34317;51.660;5.824;2024-01-25T02:54:42;34.58;;;4.50;;
48526;SDS011;34317;51.660;5.824;2024-01-25T02:57:09;28.65;;;4.03;;
48526;SDS011;34317;51.660;5.824;2024-01-25T02:59:36;32.15;;;4.90;;
48526;SDS011;34317;51.660;5.824;2024-01-25T03:02:04;24.15;;;4.55;;
48526;SDS011;34317;51.660;5.824;2024-01-25T03:04:31;29.58;;;4.97;;
48526;SDS011;34317;51.660;5.824;2024-01-25T03:06:58;26.92;;;4.55;;
48526;SDS011;34317;51.660;5.824;2024-01-25T03:09:26;30.55;;;4.68;;
48526;SDS011;34317;51.660;5.824;2024-01-25T03:11:54;22.15;;;4.40;;
48526;SDS011;34317;51.660;5.824;2024-01-25T03:14:21;29.98;;;4.32;;
48526;SDS011;34317;51.660;5.824;2024-01-25T03:16:48;21.55;;;4.15;;
48526;SDS011;34317;51.660;5.824;2024-01-25T03:19:17;28.88;;;5.00;;
48526;SDS011;34317;51.660;5.824;2024-01-25T03:21:45;32.78;;;4.65;;
48526;SDS011;34317;51.660;5.824;2024-01-25T03:24:12;29.63;;;4.68;;
48526;SDS011;34317;51.660;5.824;2024-01-25T03:26:40;29.83;;;4.32;;
48526;SDS011;34317;51.660;5.824;2024-01-25T03:29:07;29.80;;;4.38;;
48526;SDS011;34317;51.660;5.824;2024-01-25T03:31:35;26.23;;;5.10;;
48526;SDS011;34317;51.660;5.824;2024-01-25T03:34:03;33.15;;;4.78;;
48526;SDS011;34317;51.660;5.824;2024-01-25T03:36:30;30.02;;;5.40;;
48526;SDS011;34317;51.660;5.824;2024-01-25T03:38:58;23.50;;;4.63;;
48526;SDS011;34317;51.660;5.824;2024-01-25T03:41:25;30.40;;;4.78;;
48526;SDS011;34317;51.660;5.824;2024-01-25T03:43:53;26.15;;;4.97;;
48526;SDS011;34317;51.660;5.824;2024-01-25T03:46:21;25.85;;;4.93;;
48526;SDS011;34317;51.660;5.824;2024-01-25T03:48:48;34.53;;;4.80;;
48526;SDS011;34317;51.660;5.824;2024-01-25T03:51:16;26.95;;;4.93;;
48526;SDS011;34317;51.660;5.824;2024-01-25T03:53:43;33.92;;;5.25;;
48526;SDS011;34317;51.660;5.824;2024-01-25T03:56:13;30.27;;;5.45;;
48526;SDS011;34317;51.660;5.824;2024-01-25T03:58:44;32.17;;;4.75;;
48526;SDS011;34317;51.660;5.824;2024-01-25T04:01:11;28.02;;;4.78;;
48526;SDS011;34317;51.660;5.824;2024-01-25T04:03:39;29.17;;;5.28;;
48526;SDS011;34317;51.660;5.824;2024-01-25T04:06:06;30.45;;;5.22;;
48526;SDS011;34317;51.660;5.824;2024-01-25T04:08:34;28.58;;;4.85;;
48526;SDS011;34317;51.660;5.824;2024-01-25T04:11:01;37.38;;;5.30;;
48526;SDS011;34317;51.660;5.824;2024-01-25T04:13:28;35.30;;;4.75;;
48526;SDS011;34317;51.660;5.824;2024-01-25T04:15:55;35.55;;;5.07;;
48526;SDS011;34317;51.660;5.824;2024-01-25T04:18:23;23.42;;;4.90;;
48526;SDS011;34317;51.660;5.824;2024-01-25T04:20:50;29.63;;;4.80;;
48526;SDS011;34317;51.660;5.824;2024-01-25T04:23:17;31.80;;;5.20;;
48526;SDS011;34317;51.660;5.824;2024-01-25T04:25:45;33.22;;;5.05;;
48526;SDS011;34317;51.660;5.824;2024-01-25T04:28:12;26.05;;;4.60;;
48526;SDS011;34317;51.660;5.824;2024-01-25T04:30:39;30.55;;;5.07;;
48526;SDS011;34317;51.660;5.824;2024-01-25T04:33:07;23.60;;;5.35;;
48526;SDS011;34317;51.660;5.824;2024-01-25T04:35:34;27.88;;;5.22;;
48526;SDS011;34317;51.660;5.824;2024-01-25T04:38:01;35.53;;;5.93;;
48526;SDS011;34317;51.660;5.824;2024-01-25T04:40:29;30.10;;;5.88;;
48526;SDS011;34317;51.660;5.824;2024-01-25T04:42:56;27.05;;;5.10;;
48526;SDS011;34317;51.660;5.824;2024-01-25T04:45:23;33.42;;;5.35;;
48526;SDS011;34317;51.660;5.824;2024-01-25T04:47:51;32.42;;;5.97;;
48526;SDS011;34317;51.660;5.824;2024-01-25T04:50:18;28.38;;;5.38;;
48526;SDS011;34317;51.660;5.824;2024-01-25T04:52:46;33.70;;;5.28;;
48526;SDS011;34317;51.660;5.824;2024-01-25T04:55:13;33.13;;;5.40;;
48526;SDS011;34317;51.660;5.824;2024-01-25T04:57:40;31.48;;;5.32;;
48526;SDS011;34317;51.660;5.824;2024-01-25T05:00:07;34.22;;;5.30;;
48526;SDS011;34317;51.660;5.824;2024-01-25T05:02:35;41.30;;;5.53;;
48526;SDS011;34317;51.660;5.824;2024-01-25T05:05:02;36.65;;;6.10;;
48526;SDS011;34317;51.660;5.824;2024-01-25T05:07:30;37.67;;;5.38;;
48526;SDS011;34317;51.660;5.824;2024-01-25T05:09:58;33.95;;;5.00;;
48526;SDS011;34317;51.660;5.824;2024-01-25T05:12:25;31.92;;;5.10;;
48526;SDS011;34317;51.660;5.824;2024-01-25T05:14:52;34.67;;;5.55;;
48526;SDS011;34317;51.660;5.824;2024-01-25T05:17:19;34.95;;;5.47;;
48526;SDS011;34317;51.660;5.824;2024-01-25T05:19:46;32.05;;;5.07;;
48526;SDS011;34317;51.660;5.824;2024-01-25T05:22:14;39.92;;;5.00;;
48526;SDS011;34317;51.660;5.824;2024-01-25T05:24:41;28.45;;;4.57;;
48526;SDS011;34317;51.660;5.824;2024-01-25T05:27:09;30.67;;;4.80;;
48526;SDS011;34317;51.660;5.824;2024-01-25T05:29:36;32.50;;;5.25;;
48526;SDS011;34317;51.660;5.824;2024-01-25T05:32:03;26.33;;;4.57;;
48526;SDS011;34317;51.660;5.824;2024-01-25T05:34:30;33.65;;;5.07;;
48526;SDS011;34317;51.660;5.824;2024-01-25T05:36:58;37.28;;;5.05;;
48526;SDS011;34317;51.660;5.824;2024-01-25T05:39:25;35.38;;;5.18;;
48526;SDS011;34317;51.660;5.824;2024-01-25T05:41:52;31.77;;;5.40;;
48526;SDS011;34317;51.660;5.824;2024-01-25T05:44:19;23.48;;;4.47;;
48526;SDS011;34317;51.660;5.824;2024-01-25T05:46:46;31.58;;;5.13;;
48526;SDS011;34317;51.660;5.824;2024-01-25T05:49:13;25.60;;;5.10;;
48526;SDS011;34317;51.660;5.824;2024-01-25T05:51:41;36.35;;;5.43;;
48526;SDS011;34317;51.660;5.824;2024-01-25T05:54:08;33.70;;;5.35;;
48526;SDS011;34317;51.660;5.824;2024-01-25T05:56:35;26.90;;;4.97;;
48526;SDS011;34317;51.660;5.824;2024-01-25T05:59:05;33.45;;;5.00;;
48526;SDS011;34317;51.660;5.824;2024-01-25T06:01:32;35.80;;;5.68;;
48526;SDS011;34317;51.660;5.824;2024-01-25T06:04:00;28.98;;;4.65;;
48526;SDS011;34317;51.660;5.824;2024-01-25T06:06:27;27.45;;;5.07;;
48526;SDS011;34317;51.660;5.824;2024-01-25T06:08:55;34.33;;;5.15;;
48526;SDS011;34317;51.660;5.824;2024-01-25T06:11:37;27.05;;;4.75;;
48526;SDS011;34317;51.660;5.824;2024-01-25T06:14:05;30.77;;;4.93;;
48526;SDS011;34317;51.660;5.824;2024-01-25T06:16:32;33.88;;;4.72;;
48526;SDS011;34317;51.660;5.824;2024-01-25T06:19:00;32.20;;;5.45;;
48526;SDS011;34317;51.660;5.824;2024-01-25T06:21:37;37.40;;;5.13;;
48526;SDS011;34317;51.660;5.824;2024-01-25T06:24:55;30.77;;;5.38;;
48526;SDS011;34317;51.660;5.824;2024-01-25T06:27:23;26.33;;;4.50;;
48526;SDS011;34317;51.660;5.824;2024-01-25T06:29:50;33.03;;;4.97;;
48526;SDS011;34317;51.660;5.824;2024-01-25T06:32:17;25.20;;;4.93;;
48526;SDS011;34317;51.660;5.824;2024-01-25T06:37:21;24.70;;;4.93;;
48526;SDS011;34317;51.660;5.824;2024-01-25T06:39:48;27.17;;;4.70;;
48526;SDS011;34317;51.660;5.824;2024-01-25T06:42:15;31.98;;;5.15;;
48526;SDS011;34317;51.660;5.824;2024-01-25T06:44:44;24.90;;;4.72;;
48526;SDS011;34317;51.660;5.824;2024-01-25T06:47:11;32.72;;;4.63;;
48526;SDS011;34317;51.660;5.824;2024-01-25T06:49:38;31.15;;;5.18;;
48526;SDS011;34317;51.660;5.824;2024-01-25T06:52:06;35.13;;;5.50;;
48526;SDS011;34317;51.660;5.824;2024-01-25T06:54:33;28.35;;;4.90;;
48526;SDS011;34317;51.660;5.824;2024-01-25T06:57:00;30.55;;;5.45;;
48526;SDS011;34317;51.660;5.824;2024-01-25T06:59:27;15.27;;;2.92;;
48526;SDS011;34317;51.660;5.824;2024-01-25T07:01:55;16.67;;;3.13;;
48526;SDS011;34317;51.660;5.824;2024-01-25T07:04:23;21.10;;;3.33;;
48526;SDS011;34317;51.660;5.824;2024-01-25T07:06:51;21.90;;;3.45;;
48526;SDS011;34317;51.660;5.824;2024-01-25T07:09:19;14.82;;;2.65;;
48526;SDS011;34317;51.660;5.824;2024-01-25T07:11:46;24.05;;;2.97;;
48526;SDS011;34317;51.660;5.824;2024-01-25T07:14:13;17.17;;;3.58;;
48526;SDS011;34317;51.660;5.824;2024-01-25T07:16:40;16.23;;;3.38;;
48526;SDS011;34317;51.660;5.824;2024-01-25T07:19:07;16.48;;;2.85;;
48526;SDS011;34317;51.660;5.824;2024-01-25T07:21:35;23.40;;;3.63;;
48526;SDS011;34317;51.660;5.824;2024-01-25T07:24:02;19.73;;;3.67;;
48526;SDS011;34317;51.660;5.824;2024-01-25T07:26:33;24.88;;;3.67;;
48526;SDS011;34317;51.660;5.824;2024-01-25T07:29:00;21.80;;;3.88;;
48526;SDS011;34317;51.660;5.824;2024-01-25T07:31:27;16.02;;;3.33;;
48526;SDS011;34317;51.660;5.824;2024-01-25T07:33:55;17.80;;;3.08;;
48526;SDS011;34317;51.660;5.824;2024-01-25T07:36:22;21.50;;;4.32;;
48526;SDS011;34317;51.660;5.824;2024-01-25T07:38:51;29.90;;;3.90;;
48526;SDS011;34317;51.660;5.824;2024-01-25T07:41:18;18.65;;;3.22;;
48526;SDS011;34317;51.660;5.824;2024-01-25T07:43:46;28.23;;;3.80;;
48526;SDS011;34317;51.660;5.824;2024-01-25T07:46:13;24.70;;;3.38;;
48526;SDS011;34317;51.660;5.824;2024-01-25T07:48:42;16.30;;;3.80;;
48526;SDS011;34317;51.660;5.824;2024-01-25T07:51:11;21.33;;;3.60;;
48526;SDS011;34317;51.660;5.824;2024-01-25T07:53:40;22.75;;;3.83;;
48526;SDS011;34317;51.660;5.824;2024-01-25T07:56:07;25.25;;;3.75;;
48526;SDS011;34317;51.660;5.824;2024-01-25T07:58:36;25.77;;;3.67;;
48526;SDS011;34317;51.660;5.824;2024-01-25T08:01:04;23.52;;;4.55;;
48526;SDS011;34317;51.660;5.824;2024-01-25T08:03:33;18.45;;;3.70;;
48526;SDS011;34317;51.660;5.824;2024-01-25T08:06:01;25.00;;;4.05;;
48526;SDS011;34317;51.660;5.824;2024-01-25T08:08:30;20.58;;;3.72;;
48526;SDS011;34317;51.660;5.824;2024-01-25T08:10:57;20.00;;;3.45;;
48526;SDS011;34317;51.660;5.824;2024-01-25T08:13:25;29.50;;;3.92;;
48526;SDS011;34317;51.660;5.824;2024-01-25T08:16:00;24.92;;;3.38;;
48526;SDS011;34317;51.660;5.824;2024-01-25T08:18:27;15.73;;;3.42;;
48526;SDS011;34317;51.660;5.824;2024-01-25T08:20:57;17.65;;;4.07;;
48526;SDS011;34317;51.660;5.824;2024-01-25T08:23:27;22.67;;;4.35;;
48526;SDS011;34317;51.660;5.824;2024-01-25T08:25:54;27.92;;;4.10;;
48526;SDS011;34317;51.660;5.824;2024-01-25T08:28:21;21.08;;;3.60;;
48526;SDS011;34317;51.660;5.824;2024-01-25T08:30:48;21.75;;;4.70;;
48526;SDS011;34317;51.660;5.824;2024-01-25T08:33:16;20.70;;;4.68;;
48526;SDS011;34317;51.660;5.824;2024-01-25T08:35:43;22.35;;;4.15;;
48526;SDS011;34317;51.660;5.824;2024-01-25T08:38:10;24.52;;;4.47;;
48526;SDS011;34317;51.660;5.824;2024-01-25T08:40:38;22.35;;;4.63;;
48526;SDS011;34317;51.660;5.824;2024-01-25T08:43:05;11.35;;;3.50;;
48526;SDS011;34317;51.660;5.824;2024-01-25T08:45:32;30.13;;;3.95;;
48526;SDS011;34317;51.660;5.824;2024-01-25T08:48:00;22.10;;;3.50;;
48526;SDS011;34317;51.660;5.824;2024-01-25T08:50:28;18.95;;;4.35;;
48526;SDS011;34317;51.660;5.824;2024-01-25T08:52:55;21.98;;;4.03;;
48526;SDS011;34317;51.660;5.824;2024-01-25T08:55:22;19.83;;;4.43;;
48526;SDS011;34317;51.660;5.824;2024-01-25T08:57:50;23.17;;;4.55;;
48526;SDS011;34317;51.660;5.824;2024-01-25T09:00:18;20.30;;;4.18;;
48526;SDS011;34317;51.660;5.824;2024-01-25T09:02:45;25.15;;;4.53;;
48526;SDS011;34317;51.660;5.824;2024-01-25T09:05:12;20.00;;;4.50;;
48526;SDS011;34317;51.660;5.824;2024-01-25T09:07:40;22.67;;;4.50;;
48526;SDS011;34317;51.660;5.824;2024-01-25T09:10:09;18.77;;;4.60;;
48526;SDS011;34317;51.660;5.824;2024-01-25T09:12:37;22.23;;;4.32;;
48526;SDS011;34317;51.660;5.824;2024-01-25T09:15:05;26.65;;;4.97;;
48526;SDS011;34317;51.660;5.824;2024-01-25T09:17:32;25.13;;;5.53;;
48526;SDS011;34317;51.660;5.824;2024-01-25T09:20:00;23.58;;;5.28;;
48526;SDS011;34317;51.660;5.824;2024-01-25T09:22:27;26.80;;;5.43;;
48526;SDS011;34317;51.660;5.824;2024-01-25T09:24:55;27.67;;;5.35;;
48526;SDS011;34317;51.660;5.824;2024-01-25T09:27:22;27.25;;;5.25;;
48526;SDS011;34317;51.660;5.824;2024-01-25T09:29:50;24.15;;;5.55;;
48526;SDS011;34317;51.660;5.824;2024-01-25T09:32:17;18.02;;;5.05;;
48526;SDS011;34317;51.660;5.824;2024-01-25T09:34:47;22.50;;;5.15;;
48526;SDS011;34317;51.660;5.824;2024-01-25T09:37:14;29.38;;;5.55;;
48526;SDS011;34317;51.660;5.824;2024-01-25T09:39:42;22.02;;;5.40;;
48526;SDS011;34317;51.660;5.824;2024-01-25T09:42:09;26.27;;;6.18;;
48526;SDS011;34317;51.660;5.824;2024-01-25T09:44:38;26.25;;;5.60;;
48526;SDS011;34317;51.660;5.824;2024-01-25T09:47:06;21.90;;;5.15;;
48526;SDS011;34317;51.660;5.824;2024-01-25T09:49:34;28.10;;;5.20;;
48526;SDS011;34317;51.660;5.824;2024-01-25T09:52:03;24.88;;;5.30;;
48526;SDS011;34317;51.660;5.824;2024-01-25T09:54:34;17.52;;;5.55;;
48526;SDS011;34317;51.660;5.824;2024-01-25T09:57:07;26.90;;;5.10;;
48526;SDS011;34317;51.660;5.824;2024-01-25T09:59:44;23.10;;;5.50;;
48526;SDS011;34317;51.660;5.824;2024-01-25T10:02:11;24.10;;;5.63;;
48526;SDS011;34317;51.660;5.824;2024-01-25T10:04:39;18.42;;;5.45;;
48526;SDS011;34317;51.660;5.824;2024-01-25T10:07:06;19.60;;;5.55;;
48526;SDS011;34317;51.660;5.824;2024-01-25T10:09:40;23.50;;;5.93;;
48526;SDS011;34317;51.660;5.824;2024-01-25T10:12:08;16.58;;;5.03;;
48526;SDS011;34317;51.660;5.824;2024-01-25T10:14:45;23.38;;;5.68;;
48526;SDS011;34317;51.660;5.824;2024-01-25T10:17:12;28.63;;;5.60;;
48526;SDS011;34317;51.660;5.824;2024-01-25T10:19:42;24.25;;;6.43;;
48526;SDS011;34317;51.660;5.824;2024-01-25T10:22:12;25.60;;;6.30;;
48526;SDS011;34317;51.660;5.824;2024-01-25T10:24:42;28.02;;;6.22;;
48526;SDS011;34317;51.660;5.824;2024-01-25T10:27:10;26.30;;;6.50;;
48526;SDS011;34317;51.660;5.824;2024-01-25T10:29:38;22.67;;;6.30;;
48526;SDS011;34317;51.660;5.824;2024-01-25T10:32:05;23.52;;;5.63;;
48526;SDS011;34317;51.660;5.824;2024-01-25T10:34:35;27.88;;;5.93;;
48526;SDS011;34317;51.660;5.824;2024-01-25T10:37:06;19.40;;;5.75;;
48526;SDS011;34317;51.660;5.824;2024-01-25T10:39:35;28.92;;;6.32;;
48526;SDS011;34317;51.660;5.824;2024-01-25T10:42:02;24.33;;;5.80;;
48526;SDS011;34317;51.660;5.824;2024-01-25T10:44:31;27.98;;;7.55;;
48526;SDS011;34317;51.660;5.824;2024-01-25T10:46:58;22.40;;;5.45;;
48526;SDS011;34317;51.660;5.824;2024-01-25T10:49:26;28.17;;;6.45;;
48526;SDS011;34317;51.660;5.824;2024-01-25T10:51:56;23.70;;;6.63;;
48526;SDS011;34317;51.660;5.824;2024-01-25T10:54:23;27.85;;;6.43;;
48526;SDS011;34317;51.660;5.824;2024-01-25T10:56:53;23.20;;;6.68;;
48526;SDS011;34317;51.660;5.824;2024-01-25T10:59:21;32.20;;;6.65;;
48526;SDS011;34317;51.660;5.824;2024-01-25T11:01:53;23.13;;;6.18;;
48526;SDS011;34317;51.660;5.824;2024-01-25T11:04:24;22.45;;;5.90;;
48526;SDS011;34317;51.660;5.824;2024-01-25T11:06:51;23.58;;;6.70;;
48526;SDS011;34317;51.660;5.824;2024-01-25T11:09:20;22.63;;;6.32;;
48526;SDS011;34317;51.660;5.824;2024-01-25T11:11:48;24.05;;;6.63;;
48526;SDS011;34317;51.660;5.824;2024-01-25T11:14:19;21.33;;;6.18;;
48526;SDS011;34317;51.660;5.824;2024-01-25T11:16:46;22.92;;;5.93;;
48526;SDS011;34317;51.660;5.824;2024-01-25T11:19:18;30.58;;;6.75;;
48526;SDS011;34317;51.660;5.824;2024-01-25T11:21:47;28.65;;;6.50;;
48526;SDS011;34317;51.660;5.824;2024-01-25T11:24:16;21.50;;;5.85;;
48526;SDS011;34317;51.660;5.824;2024-01-25T11:26:46;26.20;;;6.72;;
48526;SDS011;34317;51.660;5.824;2024-01-25T11:29:15;26.60;;;6.45;;
48526;SDS011;34317;51.660;5.824;2024-01-25T11:31:44;22.92;;;5.70;;
48526;SDS011;34317;51.660;5.824;2024-01-25T11:34:13;22.17;;;6.90;;
48526;SDS011;34317;51.660;5.824;2024-01-25T11:36:42;24.38;;;6.63;;
48526;SDS011;34317;51.660;5.824;2024-01-25T11:39:11;24.48;;;6.18;;
48526;SDS011;34317;51.660;5.824;2024-01-25T11:41:39;26.73;;;6.20;;
48526;SDS011;34317;51.660;5.824;2024-01-25T11:44:06;27.10;;;6.28;;
48526;SDS011;34317;51.660;5.824;2024-01-25T11:46:33;21.70;;;6.70;;
48526;SDS011;34317;51.660;5.824;2024-01-25T11:49:04;21.15;;;6.43;;
48526;SDS011;34317;51.660;5.824;2024-01-25T11:51:32;28.25;;;7.22;;
48526;SDS011;34317;51.660;5.824;2024-01-25T11:53:59;26.95;;;7.20;;
48526;SDS011;34317;51.660;5.824;2024-01-25T11:56:28;29.05;;;7.10;;
48526;SDS011;34317;51.660;5.824;2024-01-25T11:58:58;26.15;;;7.30;;
48526;SDS011;34317;51.660;5.824;2024-01-25T12:01:25;24.58;;;7.03;;
48526;SDS011;34317;51.660;5.824;2024-01-25T12:03:54;28.65;;;7.55;;
48526;SDS011;34317;51.660;5.824;2024-01-25T12:06:21;23.52;;;7.75;;
48526;SDS011;34317;51.660;5.824;2024-01-25T12:08:48;28.60;;;7.68;;
48526;SDS011;34317;51.660;5.824;2024-01-25T12:11:18;28.00;;;8.50;;
48526;SDS011;34317;51.660;5.824;2024-01-25T12:13:45;26.95;;;8.57;;
48526;SDS011;34317;51.660;5.824;2024-01-25T12:16:13;29.05;;;8.55;;
48526;SDS011;34317;51.660;5.824;2024-01-25T12:18:41;30.45;;;9.85;;
48526;SDS011;34317;51.660;5.824;2024-01-25T12:21:10;30.23;;;9.20;;
48526;SDS011;34317;51.660;5.824;2024-01-25T12:23:38;30.13;;;8.85;;
48526;SDS011;34317;51.660;5.824;2024-01-25T12:26:07;24.48;;;8.65;;
48526;SDS011;34317;51.660;5.824;2024-01-25T12:28:36;31.13;;;8.60;;
48526;SDS011;34317;51.660;5.824;2024-01-25T12:31:05;27.65;;;9.07;;
48526;SDS011;34317;51.660;5.824;2024-01-25T12:33:33;29.35;;;9.07;;
48526;SDS011;34317;51.660;5.824;2024-01-25T12:36:02;32.03;;;9.65;;
48526;SDS011;34317;51.660;5.824;2024-01-25T12:38:30;31.50;;;8.98;;
48526;SDS011;34317;51.660;5.824;2024-01-25T12:41:01;33.28;;;10.90;;
48526;SDS011;34317;51.660;5.824;2024-01-25T12:43:30;43.58;;;11.48;;
48526;SDS011;34317;51.660;5.824;2024-01-25T12:45:59;34.17;;;11.52;;
48526;SDS011;34317;51.660;5.824;2024-01-25T12:48:44;41.90;;;12.32;;
48526;SDS011;34317;51.660;5.824;2024-01-25T12:51:14;35.85;;;12.70;;
48526;SDS011;34317;51.660;5.824;2024-01-25T12:53:42;41.30;;;11.98;;
48526;SDS011;34317;51.660;5.824;2024-01-25T12:56:10;36.55;;;11.93;;
48526;SDS011;34317;51.660;5.824;2024-01-25T12:58:37;45.90;;;13.50;;
48526;SDS011;34317;51.660;5.824;2024-01-25T13:01:04;39.78;;;13.73;;
48526;SDS011;34317;51.660;5.824;2024-01-25T13:03:32;37.78;;;12.32;;
48526;SDS011;34317;51.660;5.824;2024-01-25T13:06:01;44.15;;;14.85;;
48526;SDS011;34317;51.660;5.824;2024-01-25T13:08:30;54.28;;;17.77;;
48526;SDS011;34317;51.660;5.824;2024-01-25T13:10:57;45.25;;;17.60;;
48526;SDS011;34317;51.660;5.824;2024-01-25T13:13:24;52.72;;;17.05;;
48526;SDS011;34317;51.660;5.824;2024-01-25T13:15:52;44.55;;;17.40;;
48526;SDS011;34317;51.660;5.824;2024-01-25T13:18:20;47.13;;;16.90;;
48526;SDS011;34317;51.660;5.824;2024-01-25T13:20:47;46.53;;;16.40;;
48526;SDS011;34317;51.660;5.824;2024-01-25T13:23:14;41.30;;;15.52;;
48526;SDS011;34317;51.660;5.824;2024-01-25T13:25:42;46.42;;;16.00;;
48526;SDS011;34317;51.660;5.824;2024-01-25T13:28:09;40.58;;;14.88;;
48526;SDS011;34317;51.660;5.824;2024-01-25T13:30:36;40.97;;;14.18;;
48526;SDS011;34317;51.660;5.824;2024-01-25T13:33:03;37.63;;;13.13;;
48526;SDS011;34317;51.660;5.824;2024-01-25T13:35:31;33.95;;;12.40;;
48526;SDS011;34317;51.660;5.824;2024-01-25T13:37:58;35.20;;;12.80;;
48526;SDS011;34317;51.660;5.824;2024-01-25T13:40:27;31.92;;;12.10;;
48526;SDS011;34317;51.660;5.824;2024-01-25T13:42:54;33.72;;;12.63;;
48526;SDS011;34317;51.660;5.824;2024-01-25T13:45:22;36.30;;;12.57;;
48526;SDS011;34317;51.660;5.824;2024-01-25T13:47:49;37.15;;;11.75;;
48526;SDS011;34317;51.660;5.824;2024-01-25T13:50:16;39.13;;;11.45;;
48526;SDS011;34317;51.660;5.824;2024-01-25T13:52:44;30.73;;;10.52;;
48526;SDS011;34317;51.660;5.824;2024-01-25T13:55:11;40.10;;;11.95;;
48526;SDS011;34317;51.660;5.824;2024-01-25T13:57:38;34.78;;;11.75;;
48526;SDS011;34317;51.660;5.824;2024-01-25T14:00:05;35.17;;;11.05;;
48526;SDS011;34317;51.660;5.824;2024-01-25T14:02:34;32.83;;;10.50;;
48526;SDS011;34317;51.660;5.824;2024-01-25T14:05:02;35.13;;;11.20;;
48526;SDS011;34317;51.660;5.824;2024-01-25T14:07:30;37.72;;;11.68;;
48526;SDS011;34317;51.660;5.824;2024-01-25T14:09:58;37.75;;;10.70;;
48526;SDS011;34317;51.660;5.824;2024-01-25T14:12:26;32.88;;;10.98;;
48526;SDS011;34317;51.660;5.824;2024-01-25T14:14:53;37.72;;;11.07;;
48526;SDS011;34317;51.660;5.824;2024-01-25T14:17:20;32.05;;;10.43;;
48526;SDS011;34317;51.660;5.824;2024-01-25T14:19:48;39.03;;;11.35;;
48526;SDS011;34317;51.660;5.824;2024-01-25T14:22:16;33.53;;;10.10;;
48526;SDS011;34317;51.660;5.824;2024-01-25T14:24:57;34.95;;;10.23;;
48526;SDS011;34317;51.660;5.824;2024-01-25T14:27:24;36.03;;;11.30;;
48526;SDS011;34317;51.660;5.824;2024-01-25T14:29:52;37.63;;;10.43;;
48526;SDS011;34317;51.660;5.824;2024-01-25T14:32:19;34.65;;;10.73;;
48526;SDS011;34317;51.660;5.824;2024-01-25T14:34:49;30.65;;;10.07;;
48526;SDS011;34317;51.660;5.824;2024-01-25T14:37:16;31.48;;;11.27;;
48526;SDS011;34317;51.660;5.824;2024-01-25T14:39:43;33.53;;;11.52;;
48526;SDS011;34317;51.660;5.824;2024-01-25T14:42:30;30.77;;;10.10;;